createdAt,value
2019-01-26T00:01:24.456Z,-1.07
2019-01-26T00:04:41.145Z,-0.92
2019-01-26T00:07:57.906Z,-0.96
2019-01-26T00:11:05.349Z,-0.98
2019-01-26T00:14:21.887Z,-0.85
2019-01-26T00:17:38.792Z,-0.91
2019-01-26T00:20:55.557Z,-0.88
2019-01-26T00:24:12.310Z,-0.75
2019-01-26T00:27:29.012Z,-0.86
2019-01-26T00:30:36.342Z,-0.80
2019-01-26T00:33:52.961Z,-0.64
2019-01-26T00:36:59.876Z,-0.75
2019-01-26T00:40:07.916Z,-0.63
2019-01-26T00:43:24.180Z,-0.59
2019-01-26T00:46:31.327Z,-0.64
2019-01-26T00:49:38.566Z,-0.55
2019-01-26T00:52:45.748Z,-0.51
2019-01-26T00:55:52.871Z,-0.48
2019-01-26T00:59:00.203Z,-0.48
2019-01-26T01:02:07.402Z,-0.40
2019-01-26T01:05:14.862Z,-0.38
2019-01-26T01:08:31.528Z,-0.40
2019-01-26T01:11:48.130Z,-0.40
2019-01-26T01:15:05.369Z,-0.32
2019-01-26T01:18:21.648Z,-0.27
2019-01-26T01:21:29.032Z,-0.35
2019-01-26T01:24:35.755Z,-0.30
2019-01-26T01:27:43.039Z,-0.22
2019-01-26T01:30:50.165Z,-0.17
2019-01-26T01:33:57.425Z,-0.23
2019-01-26T01:37:04.663Z,-0.23
2019-01-26T01:40:12.417Z,-0.21
2019-01-26T01:43:28.861Z,-0.12
2019-01-26T01:46:45.838Z,-0.18
2019-01-26T01:50:02.627Z,-0.05
2019-01-26T01:53:19.350Z,-0.09
2019-01-26T01:56:35.880Z,-0.11
2019-01-26T01:59:52.928Z,-0.14
2019-01-26T02:03:11.329Z,0.02
2019-01-26T02:06:27.880Z,0.02
2019-01-26T02:09:44.672Z,0.06
2019-01-26T02:12:51.890Z,0.15
2019-01-26T02:16:08.704Z,0.13
2019-01-26T02:19:15.919Z,0.11
2019-01-26T02:22:22.083Z,0.09
2019-01-26T02:25:29.445Z,0.13
2019-01-26T02:28:36.700Z,0.11
2019-01-26T02:31:43.891Z,0.10
2019-01-26T02:34:51.078Z,0.13
2019-01-26T02:37:58.383Z,0.40
2019-01-26T02:41:05.591Z,0.51
2019-01-26T02:44:13.275Z,0.36
2019-01-26T02:47:20.446Z,0.26
2019-01-26T02:50:27.604Z,0.55
2019-01-26T02:53:34.843Z,0.57
2019-01-26T02:56:42.049Z,0.62
2019-01-26T02:59:49.231Z,0.58
2019-01-26T03:02:56.371Z,0.68
2019-01-26T03:06:13.409Z,0.74
2019-01-26T03:09:20.539Z,0.80
2019-01-26T03:12:27.788Z,0.91
2019-01-26T03:15:35.003Z,0.80
2019-01-26T03:18:42.206Z,0.82
2019-01-26T03:21:49.419Z,0.78
2019-01-26T03:25:07.195Z,0.95
2019-01-26T03:28:14.428Z,0.95
2019-01-26T03:31:21.717Z,1.14
2019-01-26T03:34:29.017Z,1.18
2019-01-26T03:37:36.351Z,1.02
2019-01-26T03:40:42.483Z,1.28
2019-01-26T03:43:59.218Z,1.34
2019-01-26T03:47:15.933Z,1.32
2019-01-26T03:50:23.136Z,1.19
2019-01-26T03:53:30.342Z,1.51
2019-01-26T03:56:37.655Z,1.48
2019-01-26T03:59:54.288Z,1.53
2019-01-26T04:03:11.416Z,1.64
2019-01-26T04:06:28.075Z,1.45
2019-01-26T04:09:35.203Z,1.64
2019-01-26T04:12:42.997Z,1.70
2019-01-26T04:15:50.296Z,1.55
2019-01-26T04:18:57.606Z,1.69
2019-01-26T04:22:05.016Z,1.74
2019-01-26T04:25:12.278Z,1.68
2019-01-26T04:28:19.532Z,1.80
2019-01-26T04:31:26.656Z,1.95
2019-01-26T04:34:33.901Z,1.75
2019-01-26T04:37:41.092Z,1.87
2019-01-26T04:40:48.316Z,1.85
2019-01-26T04:43:55.748Z,1.95
2019-01-26T04:47:03.039Z,2.04
2019-01-26T04:50:12.341Z,1.92
2019-01-26T04:53:28.830Z,1.93
2019-01-26T04:56:36.030Z,2.06
2019-01-26T04:59:43.228Z,2.06
2019-01-26T05:02:50.488Z,2.02
2019-01-26T05:05:57.601Z,2.06
2019-01-26T05:09:08.097Z,2.07
2019-01-26T05:12:15.272Z,2.13
2019-01-26T05:15:22.580Z,2.01
2019-01-26T05:18:39.244Z,2.29
2019-01-26T05:21:46.453Z,2.03
2019-01-26T05:24:53.576Z,2.06
2019-01-26T05:28:10.402Z,2.21
2019-01-26T05:31:27.178Z,2.38
2019-01-26T05:34:43.938Z,2.43
2019-01-26T05:37:51.143Z,2.28
2019-01-26T05:40:58.349Z,2.36
2019-01-26T05:44:15.084Z,2.47
2019-01-26T05:51:12.455Z,2.50
2019-01-26T05:54:19.736Z,2.46
2019-01-26T05:57:26.933Z,2.37
2019-01-26T06:00:35.794Z,2.31
2019-01-26T06:03:43.077Z,2.27
2019-01-26T06:06:59.640Z,2.42
2019-01-26T06:10:07.108Z,2.40
2019-01-26T06:13:23.658Z,2.56
2019-01-26T06:16:30.865Z,2.55
2019-01-26T06:19:37.992Z,2.54
2019-01-26T06:22:45.359Z,2.54
2019-01-26T06:26:02.016Z,2.63
2019-01-26T06:29:09.251Z,2.53
2019-01-26T06:32:25.988Z,2.68
2019-01-26T06:35:42.728Z,2.46
2019-01-26T06:38:49.896Z,2.57
2019-01-26T06:41:57.253Z,2.61
2019-01-26T06:45:15.078Z,2.54
2019-01-26T06:48:22.215Z,2.59
2019-01-26T06:51:27.845Z,2.64
2019-01-26T06:54:35.257Z,2.67
2019-01-26T06:57:42.653Z,2.63
2019-01-26T07:00:59.539Z,2.76
2019-01-26T07:04:25.695Z,2.66
2019-01-26T07:07:32.935Z,2.71
2019-01-26T07:10:40.327Z,2.68
2019-01-26T07:13:47.633Z,2.77
2019-01-26T07:17:04.447Z,2.72
2019-01-26T07:20:21.139Z,2.85
2019-01-26T07:23:38.074Z,2.62
2019-01-26T07:26:45.210Z,2.74
2019-01-26T07:29:52.494Z,2.59
2019-01-26T07:32:59.737Z,2.60
2019-01-26T07:36:06.949Z,2.66
2019-01-26T07:39:14.452Z,2.59
2019-01-26T07:42:30.897Z,2.81
2019-01-26T07:45:47.556Z,2.83
2019-01-26T07:48:54.694Z,2.86
2019-01-26T07:52:01.938Z,2.85
2019-01-26T07:55:09.916Z,2.76
2019-01-26T07:58:17.289Z,2.74
2019-01-26T08:01:24.497Z,2.79
2019-01-26T08:04:31.654Z,2.84
2019-01-26T08:07:38.945Z,2.80
2019-01-26T08:10:46.148Z,2.90
2019-01-26T08:14:03.943Z,3.01
2019-01-26T08:17:11.839Z,2.97
2019-01-26T08:20:19.869Z,2.87
2019-01-26T08:23:36.368Z,2.96
2019-01-26T08:26:43.618Z,2.88
2019-01-26T08:30:00.307Z,3.00
2019-01-26T08:33:06.126Z,2.84
2019-01-26T08:36:22.739Z,3.00
2019-01-26T08:39:39.368Z,2.94
2019-01-26T08:42:46.681Z,3.01
2019-01-26T08:45:54.157Z,2.95
2019-01-26T08:49:10.559Z,3.01
2019-01-26T08:52:17.897Z,2.99
2019-01-26T08:55:34.540Z,3.14
2019-01-26T08:58:41.690Z,2.98
2019-01-26T09:01:50.542Z,3.01
2019-01-26T09:04:57.150Z,3.10
2019-01-26T09:08:04.509Z,3.11
2019-01-26T09:11:11.816Z,2.98
2019-01-26T09:14:19.121Z,3.01
2019-01-26T09:17:26.441Z,3.01
2019-01-26T09:20:33.222Z,3.05
2019-01-26T09:23:40.703Z,3.20
2019-01-26T09:26:47.897Z,3.18
2019-01-26T09:29:55.027Z,3.10
2019-01-26T09:33:02.351Z,3.14
2019-01-26T09:36:09.725Z,3.27
2019-01-26T09:39:16.840Z,3.09
2019-01-26T09:42:33.671Z,3.28
2019-01-26T09:45:41.151Z,3.22
2019-01-26T09:49:00.684Z,3.29
2019-01-26T09:52:07.901Z,3.25
2019-01-26T09:55:15.576Z,3.08
2019-01-26T09:58:32.027Z,3.29
2019-01-26T10:01:48.849Z,3.24
2019-01-26T10:04:56.039Z,3.16
2019-01-26T10:08:03.568Z,3.19
2019-01-26T10:11:19.948Z,3.33
2019-01-26T10:14:36.704Z,3.29
2019-01-26T10:17:45.968Z,3.30
2019-01-26T10:21:02.423Z,3.47
2019-01-26T10:24:08.154Z,3.36
2019-01-26T10:27:24.657Z,3.38
2019-01-26T10:30:46.190Z,3.43
2019-01-26T10:33:53.309Z,3.41
2019-01-26T10:37:03.566Z,3.39
2019-01-26T10:40:28.768Z,3.33
2019-01-26T10:43:53.828Z,3.32
2019-01-26T10:47:01.439Z,3.45
2019-01-26T10:50:09.432Z,3.45
2019-01-26T10:53:26.019Z,3.57
2019-01-26T10:56:33.218Z,3.53
2019-01-26T10:59:40.469Z,3.61
2019-01-26T11:02:47.671Z,3.53
2019-01-26T11:05:54.816Z,3.74
2019-01-26T11:09:02.559Z,3.52
2019-01-26T11:12:18.826Z,3.58
2019-01-26T11:15:35.664Z,3.75
2019-01-26T11:18:42.823Z,3.65
2019-01-26T11:21:50.070Z,3.55
2019-01-26T11:24:57.258Z,3.56
2019-01-26T11:28:04.601Z,3.70
2019-01-26T11:31:21.661Z,3.83
2019-01-26T11:34:37.976Z,3.85
2019-01-26T11:37:45.271Z,3.68
2019-01-26T11:40:52.461Z,3.62
2019-01-26T11:43:59.637Z,3.68
2019-01-26T11:47:09.786Z,3.76
2019-01-26T11:50:22.567Z,3.88
2019-01-26T11:53:46.701Z,3.65
2019-01-26T11:57:21.119Z,3.76
2019-01-26T12:00:59.166Z,3.76
2019-01-26T12:04:25.780Z,3.69
2019-01-26T12:07:34.820Z,3.86
2019-01-26T12:10:42.047Z,3.82
2019-01-26T12:13:49.185Z,3.83
2019-01-26T12:16:56.398Z,3.83
2019-01-26T12:20:03.228Z,3.87
2019-01-26T12:23:10.521Z,3.93
2019-01-26T12:26:17.822Z,3.95
2019-01-26T12:29:25.141Z,3.76
2019-01-26T12:32:32.605Z,3.96
2019-01-26T12:35:39.736Z,3.96
2019-01-26T12:38:46.982Z,3.94
2019-01-26T12:41:54.212Z,3.99
2019-01-26T12:45:01.335Z,3.92
2019-01-26T12:48:08.532Z,3.81
2019-01-26T12:51:15.744Z,3.90
2019-01-26T12:54:22.987Z,3.97
2019-01-26T12:57:30.192Z,3.87
2019-01-26T13:00:37.496Z,4.03
2019-01-26T13:03:54.944Z,3.98
2019-01-26T13:07:02.757Z,3.91
2019-01-26T13:10:14.962Z,3.90
2019-01-26T13:13:22.269Z,4.05
2019-01-26T13:16:30.421Z,3.99
2019-01-26T13:19:37.867Z,4.00
2019-01-26T13:22:45.182Z,4.02
2019-01-26T13:25:52.331Z,3.99
2019-01-26T13:28:59.548Z,4.06
2019-01-26T13:32:06.751Z,4.17
2019-01-26T13:35:14.290Z,4.07
2019-01-26T13:38:21.555Z,3.97
2019-01-26T13:41:28.895Z,3.93
2019-01-26T13:44:36.147Z,3.92
2019-01-26T13:47:52.795Z,3.93
2019-01-26T13:51:00.093Z,3.95
2019-01-26T13:54:16.738Z,4.01
2019-01-26T13:57:23.859Z,3.94
2019-01-26T14:00:31.767Z,3.89
2019-01-26T14:03:39.075Z,4.01
2019-01-26T14:06:46.209Z,3.99
2019-01-26T14:09:53.338Z,3.89
2019-01-26T14:13:00.759Z,3.83
2019-01-26T14:16:08.175Z,3.86
2019-01-26T14:19:15.413Z,3.97
2019-01-26T14:22:22.707Z,3.91
2019-01-26T14:25:30.129Z,3.85
2019-01-26T14:28:37.246Z,3.79
2019-01-26T14:31:44.582Z,3.82
2019-01-26T14:34:51.727Z,3.88
2019-01-26T14:37:58.921Z,3.81
2019-01-26T14:41:06.225Z,3.76
2019-01-26T14:44:13.436Z,3.74
2019-01-26T14:47:20.640Z,3.80
2019-01-26T14:50:29.379Z,3.91
2019-01-26T14:53:36.759Z,3.90
2019-01-26T14:56:43.896Z,3.84
2019-01-26T14:59:51.082Z,3.79
2019-01-26T15:02:58.324Z,3.86
2019-01-26T15:06:05.552Z,3.72
2019-01-26T15:09:12.695Z,3.88
2019-01-26T15:12:19.923Z,3.78
2019-01-26T15:15:27.220Z,3.70
2019-01-26T15:18:34.448Z,3.70
2019-01-26T15:21:41.568Z,3.73
2019-01-26T15:24:48.783Z,3.76
2019-01-26T15:27:56.076Z,3.69
2019-01-26T15:31:02.157Z,3.66
2019-01-26T15:34:09.496Z,3.74
2019-01-26T15:37:16.866Z,3.65
2019-01-26T15:40:24.068Z,3.64
2019-01-26T15:43:31.236Z,3.62
2019-01-26T15:46:38.570Z,3.61
2019-01-26T15:49:45.919Z,3.53
2019-01-26T15:52:53.218Z,3.59
2019-01-26T15:56:00.639Z,3.52
2019-01-26T15:59:08.041Z,3.45
2019-01-26T16:02:15.249Z,3.62
2019-01-26T16:05:22.649Z,3.53
2019-01-26T16:08:39.195Z,3.51
2019-01-26T16:11:55.956Z,3.46
2019-01-26T16:15:15.484Z,3.59
2019-01-26T16:18:22.887Z,3.45
2019-01-26T16:21:30.053Z,3.44
2019-01-26T16:24:37.489Z,3.41
2019-01-26T16:27:54.331Z,3.44
2019-01-26T16:31:10.943Z,3.52
2019-01-26T16:34:18.237Z,3.38
2019-01-26T16:37:25.369Z,3.38
2019-01-26T16:40:33.839Z,3.37
2019-01-26T16:43:41.021Z,3.37
2019-01-26T16:46:48.212Z,3.40
2019-01-26T16:49:55.424Z,3.31
2019-01-26T16:53:02.645Z,3.34
2019-01-26T16:56:09.901Z,3.28
2019-01-26T16:59:17.030Z,3.41
2019-01-26T17:02:24.301Z,3.38
2019-01-26T17:05:31.516Z,3.41
2019-01-26T17:08:38.714Z,3.39
2019-01-26T17:11:46.188Z,3.37
2019-01-26T17:14:53.305Z,3.44
2019-01-26T17:18:00.702Z,3.46
2019-01-26T17:21:07.907Z,3.41
2019-01-26T17:24:24.584Z,3.43
2019-01-26T17:27:31.723Z,3.40
2019-01-26T17:30:40.688Z,3.44
2019-01-26T17:33:57.272Z,3.43
2019-01-26T17:37:03.822Z,3.43
2019-01-26T17:40:14.050Z,3.47
2019-01-26T17:43:21.249Z,3.37
2019-01-26T17:46:28.377Z,3.42
2019-01-26T17:49:35.627Z,3.39
2019-01-26T17:52:42.977Z,3.61
2019-01-26T17:55:50.179Z,3.56
2019-01-26T17:58:57.407Z,3.55
2019-01-26T18:02:05.494Z,3.57
2019-01-26T18:05:22.247Z,3.74
2019-01-26T18:08:38.783Z,3.64
2019-01-26T18:11:45.902Z,3.75
2019-01-26T18:14:53.238Z,3.67
2019-01-26T18:18:00.433Z,3.75
2019-01-26T18:21:07.650Z,3.82
2019-01-26T18:24:14.779Z,3.82
2019-01-26T18:27:21.975Z,3.77
2019-01-26T18:30:29.360Z,3.91
2019-01-26T18:33:45.943Z,4.06
2019-01-26T18:36:53.285Z,4.12
2019-01-26T18:40:13.168Z,4.00
2019-01-26T18:43:30.137Z,4.12
2019-01-26T18:46:46.649Z,4.16
2019-01-26T18:49:53.858Z,3.99
2019-01-26T18:53:01.325Z,4.18
2019-01-26T18:56:17.899Z,4.35
2019-01-26T18:59:34.568Z,4.37
2019-01-26T19:02:42.084Z,4.32
2019-01-26T19:05:58.722Z,4.43
2019-01-26T19:09:15.444Z,4.44
2019-01-26T19:12:32.026Z,4.37
2019-01-26T19:15:39.517Z,4.32
2019-01-26T19:18:56.037Z,4.37
2019-01-26T19:22:12.893Z,4.53
2019-01-26T19:25:29.564Z,4.60
2019-01-26T19:28:36.752Z,4.68
2019-01-26T19:31:43.952Z,4.60
2019-01-26T19:34:51.070Z,4.79
2019-01-26T19:37:58.259Z,4.76
2019-01-26T19:41:05.478Z,4.72
2019-01-26T19:44:12.670Z,4.73
2019-01-26T19:47:29.580Z,4.83
2019-01-26T19:50:36.809Z,4.77
2019-01-26T19:53:44.171Z,5.11
2019-01-26T19:57:01.057Z,5.01
2019-01-26T20:00:17.884Z,4.96
2019-01-26T20:03:34.410Z,4.94
2019-01-26T20:06:52.072Z,4.96
2019-01-26T20:09:59.363Z,4.90
2019-01-26T20:13:06.769Z,4.94
2019-01-26T20:16:13.961Z,4.94
2019-01-26T20:19:21.086Z,4.85
2019-01-26T20:22:28.278Z,4.88
2019-01-26T20:25:35.389Z,4.90
2019-01-26T20:28:42.520Z,4.97
2019-01-26T20:31:49.714Z,4.92
2019-01-26T20:34:56.890Z,4.88
2019-01-26T20:38:04.004Z,5.07
2019-01-26T20:41:11.251Z,5.05
2019-01-26T20:44:18.463Z,5.04
2019-01-26T20:47:25.805Z,5.22
2019-01-26T20:50:32.887Z,5.08
2019-01-26T20:53:40.103Z,5.10
2019-01-26T20:56:47.241Z,5.04
2019-01-26T20:59:54.366Z,5.10
2019-01-26T21:03:01.570Z,4.96
2019-01-26T21:06:08.695Z,4.96
2019-01-26T21:09:15.897Z,4.98
2019-01-26T21:12:23.031Z,4.86
2019-01-26T21:15:30.452Z,4.91
2019-01-26T21:18:37.676Z,4.90
2019-01-26T21:21:44.926Z,4.88
2019-01-26T21:24:52.136Z,4.97
2019-01-26T21:27:59.349Z,5.02
2019-01-26T21:31:06.529Z,5.03
2019-01-26T21:34:13.796Z,4.97
2019-01-26T21:37:21.093Z,4.93
2019-01-26T21:40:30.500Z,4.82
2019-01-26T21:43:47.064Z,4.92
2019-01-26T21:46:54.290Z,4.87
2019-01-26T21:50:16.191Z,4.88
2019-01-26T21:53:23.397Z,4.83
2019-01-26T21:56:30.522Z,4.65
2019-01-26T21:59:37.717Z,4.84
2019-01-26T22:02:45.077Z,4.81
2019-01-26T22:05:52.281Z,4.65
2019-01-26T22:08:59.475Z,4.76
2019-01-26T22:12:06.684Z,4.85
2019-01-26T22:15:16.079Z,4.75
2019-01-26T22:18:32.652Z,4.80
2019-01-26T22:21:45.869Z,4.77
2019-01-26T22:24:48.682Z,4.77
2019-01-26T22:27:56.933Z,4.76
2019-01-26T22:31:04.062Z,4.82
2019-01-26T22:34:11.185Z,4.78
2019-01-26T22:37:18.370Z,4.77
2019-01-26T22:40:27.640Z,4.71
2019-01-26T22:43:34.769Z,4.78
2019-01-26T22:46:41.887Z,4.56
2019-01-26T22:49:49.006Z,4.68
2019-01-26T22:52:56.198Z,4.71
2019-01-26T22:56:03.336Z,4.73
2019-01-26T22:59:10.454Z,4.71
2019-01-26T23:02:17.778Z,4.70
2019-01-26T23:05:50.878Z,4.77
2019-01-26T23:08:59.386Z,4.59
2019-01-26T23:12:36.886Z,4.50
2019-01-26T23:16:12.586Z,4.66
2019-01-26T23:20:09.142Z,4.70
2019-01-26T23:24:02.664Z,4.63
2019-01-26T23:27:58.826Z,4.73
2019-01-26T23:31:21.834Z,4.68
2019-01-26T23:34:29.096Z,4.63
2019-01-26T23:37:36.313Z,4.67
2019-01-26T23:40:43.515Z,4.61
2019-01-26T23:43:50.746Z,4.56
2019-01-26T23:46:58.064Z,4.63
2019-01-26T23:50:05.865Z,4.48
2019-01-26T23:53:13.190Z,4.59
2019-01-26T23:56:20.487Z,4.63
2019-01-26T23:59:27.612Z,4.57
